createdAt,value
2023-01-22T00:00:43.505Z,75.84
2023-01-22T00:03:10.364Z,76.12
2023-01-22T00:05:37.132Z,76.30
2023-01-22T00:08:06.799Z,75.63
2023-01-22T00:10:33.699Z,75.99
2023-01-22T00:13:00.434Z,75.81
2023-01-22T00:15:27.289Z,75.53
2023-01-22T00:17:54.124Z,75.55
2023-01-22T00:20:20.985Z,75.69
2023-01-22T00:22:47.762Z,75.53
2023-01-22T00:25:14.535Z,75.90
2023-01-22T00:27:41.692Z,75.79
2023-01-22T00:30:09.214Z,76.01
2023-01-22T00:32:36.075Z,76.35
2023-01-22T00:35:02.861Z,75.99
2023-01-22T00:37:29.622Z,75.80
2023-01-22T00:39:56.356Z,76.19
2023-01-22T00:42:23.174Z,76.77
2023-01-22T00:44:50.008Z,76.11
2023-01-22T00:47:16.819Z,75.37
2023-01-22T00:49:43.629Z,75.68
2023-01-22T00:52:10.332Z,75.79
2023-01-22T00:54:37.085Z,75.88
2023-01-22T00:57:03.946Z,75.70
2023-01-22T00:59:30.637Z,75.52
2023-01-22T01:01:57.534Z,76.13
2023-01-22T01:04:24.301Z,75.85
2023-01-22T01:06:51.058Z,75.85
2023-01-22T01:09:17.923Z,75.51
2023-01-22T01:11:44.621Z,75.83
2023-01-22T01:14:12.476Z,75.87
2023-01-22T01:16:39.404Z,75.85
2023-01-22T01:19:08.146Z,75.89
2023-01-22T01:21:36.204Z,75.83
2023-01-22T01:24:02.960Z,75.65
2023-01-22T01:26:29.755Z,75.76
2023-01-22T01:28:57.009Z,76.08
2023-01-22T01:31:24.076Z,76.01
2023-01-22T01:33:50.969Z,76.02
2023-01-22T01:36:40.488Z,76.37
2023-01-22T01:39:25.851Z,76.13
2023-01-22T01:41:53.067Z,76.07
2023-01-22T01:44:21.452Z,75.59
2023-01-22T01:47:05.449Z,75.74
2023-01-22T01:49:48.071Z,75.82
2023-01-22T01:52:16.762Z,75.73
2023-01-22T01:54:45.251Z,75.67
2023-01-22T01:57:14.081Z,75.89
2023-01-22T01:59:40.907Z,75.53
2023-01-22T02:02:07.647Z,75.41
2023-01-22T02:04:34.365Z,75.69
2023-01-22T02:07:01.289Z,75.64
2023-01-22T02:09:28.496Z,75.95
2023-01-22T02:11:55.203Z,75.98
2023-01-22T02:14:27.311Z,76.34
2023-01-22T02:17:30.101Z,75.51
2023-01-22T02:19:57.950Z,75.89
2023-01-22T02:22:29.470Z,75.77
2023-01-22T02:24:56.747Z,75.61
2023-01-22T02:27:23.604Z,75.07
2023-01-22T02:29:50.373Z,75.09
2023-01-22T02:32:17.190Z,75.16
2023-01-22T02:34:43.923Z,75.16
2023-01-22T02:37:11.093Z,75.47
2023-01-22T02:39:37.850Z,75.30
2023-01-22T02:42:05.362Z,75.21
2023-01-22T02:44:32.236Z,74.79
2023-01-22T02:46:59.277Z,74.84
2023-01-22T02:49:26.153Z,74.52
2023-01-22T02:51:59.047Z,75.14
2023-01-22T02:54:25.838Z,74.07
2023-01-22T02:56:52.575Z,72.56
2023-01-22T02:59:19.348Z,73.47
2023-01-22T03:01:47.581Z,73.57
2023-01-22T03:04:14.326Z,73.28
2023-01-22T03:06:43.323Z,73.38
2023-01-22T03:09:11.633Z,73.20
2023-01-22T03:11:38.900Z,72.54
2023-01-22T03:14:05.776Z,73.31
2023-01-22T03:16:34.592Z,72.11
2023-01-22T03:19:03.479Z,72.55
2023-01-22T03:21:30.232Z,72.72
2023-01-22T03:23:57.012Z,72.78
2023-01-22T03:26:24.098Z,71.79
2023-01-22T03:28:50.875Z,71.80
2023-01-22T03:31:17.822Z,71.86
2023-01-22T03:33:44.800Z,72.08
2023-01-22T03:36:12.547Z,71.57
2023-01-22T03:38:39.268Z,71.54
2023-01-22T03:41:07.899Z,71.49
2023-01-22T03:43:35.102Z,71.57
2023-01-22T03:46:15.343Z,71.94
2023-01-22T03:48:42.381Z,72.24
2023-01-22T03:51:16.042Z,72.60
2023-01-22T03:53:43.438Z,72.86
2023-01-22T03:56:20.893Z,73.53
2023-01-22T03:58:48.274Z,72.23
2023-01-22T04:01:16.720Z,72.33
2023-01-22T04:03:43.593Z,71.45
2023-01-22T04:06:11.049Z,71.68
2023-01-22T04:08:38.484Z,72.57
2023-01-22T04:11:05.485Z,73.06
2023-01-22T04:13:33.285Z,73.47
2023-01-22T04:16:00.210Z,74.21
2023-01-22T04:18:26.951Z,74.69
2023-01-22T04:20:53.960Z,75.10
2023-01-22T04:23:22.018Z,75.16
2023-01-22T04:25:48.816Z,75.47
2023-01-22T04:28:15.690Z,75.52
2023-01-22T04:30:43.136Z,75.72
2023-01-22T04:33:10.806Z,75.57
2023-01-22T04:35:37.645Z,76.02
2023-01-22T04:38:05.360Z,76.05
2023-01-22T04:40:32.311Z,76.04
2023-01-22T04:43:03.316Z,75.50
2023-01-22T04:45:30.225Z,75.66
2023-01-22T04:47:58.202Z,75.64
2023-01-22T04:50:26.614Z,76.09
2023-01-22T04:52:53.968Z,76.13
2023-01-22T04:55:20.983Z,76.46
2023-01-22T04:57:47.737Z,76.26
2023-01-22T05:00:15.225Z,76.15
2023-01-22T05:02:42.077Z,76.35
2023-01-22T05:05:09.706Z,76.42
2023-01-22T05:07:37.875Z,76.26
2023-01-22T05:10:05.047Z,75.85
2023-01-22T05:12:31.834Z,75.77
2023-01-22T05:14:58.622Z,76.12
2023-01-22T05:17:25.502Z,76.19
2023-01-22T05:19:52.364Z,76.26
2023-01-22T05:22:20.965Z,76.00
2023-01-22T05:24:47.693Z,75.91
2023-01-22T05:27:14.378Z,76.29
2023-01-22T05:29:41.273Z,76.49
2023-01-22T05:32:08.404Z,76.77
2023-01-22T05:34:35.128Z,76.87
2023-01-22T05:37:01.849Z,76.59
2023-01-22T05:39:28.669Z,76.36
2023-01-22T05:41:55.406Z,76.43
2023-01-22T05:44:22.107Z,76.65
2023-01-22T05:46:49.812Z,76.88
2023-01-22T05:49:16.550Z,76.80
2023-01-22T05:51:43.343Z,77.06
2023-01-22T05:54:11.110Z,76.68
2023-01-22T05:56:37.810Z,77.07
2023-01-22T05:59:04.531Z,77.11
2023-01-22T06:01:31.574Z,77.00
2023-01-22T06:03:58.326Z,77.23
2023-01-22T06:06:25.088Z,77.28
2023-01-22T06:08:51.836Z,76.57
2023-01-22T06:11:18.590Z,76.67
2023-01-22T06:13:45.473Z,77.01
2023-01-22T06:16:12.378Z,77.19
2023-01-22T06:18:39.397Z,77.07
2023-01-22T06:21:07.359Z,77.07
2023-01-22T06:23:34.158Z,76.69
2023-01-22T06:26:01.516Z,76.91
2023-01-22T06:28:28.508Z,76.52
2023-01-22T06:30:56.869Z,76.35
2023-01-22T06:33:24.123Z,76.29
2023-01-22T06:35:54.817Z,76.30
2023-01-22T06:38:22.164Z,75.60
2023-01-22T06:40:58.918Z,76.20
2023-01-22T06:43:27.516Z,76.58
2023-01-22T06:45:54.482Z,76.07
2023-01-22T06:48:21.206Z,75.92
2023-01-22T06:50:48.038Z,75.92
2023-01-22T06:53:17.898Z,76.03
2023-01-22T06:55:44.575Z,76.21
2023-01-22T06:58:11.672Z,76.48
2023-01-22T07:00:38.428Z,76.51
2023-01-22T07:03:06.734Z,76.09
2023-01-22T07:05:33.646Z,76.27
2023-01-22T07:08:00.593Z,76.37
2023-01-22T07:10:27.449Z,76.48
2023-01-22T07:12:54.602Z,76.74
2023-01-22T07:15:21.612Z,76.53
2023-01-22T07:17:52.233Z,76.87
2023-01-22T07:20:21.530Z,76.96
2023-01-22T07:22:48.232Z,76.82
2023-01-22T07:25:15.304Z,77.31
2023-01-22T07:27:42.076Z,77.17
2023-01-22T07:30:09.488Z,76.23
2023-01-22T07:32:36.554Z,76.42
2023-01-22T07:35:03.985Z,76.21
2023-01-22T07:37:30.870Z,76.17
2023-01-22T07:39:57.726Z,75.87
2023-01-22T07:42:24.445Z,75.82
2023-01-22T07:44:51.317Z,76.14
2023-01-22T07:47:18.206Z,76.00
2023-01-22T07:49:44.993Z,75.86
2023-01-22T07:52:11.848Z,76.23
2023-01-22T07:54:38.610Z,76.40
2023-01-22T07:57:05.343Z,76.42
2023-01-22T07:59:32.051Z,76.24
2023-01-22T08:01:59.347Z,76.04
2023-01-22T08:04:27.031Z,76.06
2023-01-22T08:06:53.828Z,75.99
2023-01-22T08:09:21.978Z,76.61
2023-01-22T08:11:48.894Z,76.29
2023-01-22T08:14:16.224Z,76.15
2023-01-22T08:16:44.547Z,76.17
2023-01-22T08:19:11.466Z,75.84
2023-01-22T08:21:38.352Z,75.94
2023-01-22T08:24:06.491Z,75.24
2023-01-22T08:26:36.014Z,75.72
2023-01-22T08:29:06.455Z,75.38
2023-01-22T08:31:36.228Z,75.54
2023-01-22T08:34:03.309Z,75.07
2023-01-22T08:36:31.141Z,75.33
2023-01-22T08:38:58.929Z,75.20
2023-01-22T08:41:25.659Z,75.48
2023-01-22T08:43:52.471Z,75.38
2023-01-22T08:46:19.457Z,75.26
2023-01-22T08:48:47.244Z,75.05
2023-01-22T08:51:14.558Z,74.56
2023-01-22T08:53:41.789Z,75.00
2023-01-22T08:56:42.949Z,74.63
2023-01-22T08:59:10.779Z,75.33
2023-01-22T09:01:40.655Z,75.12
2023-01-22T09:04:08.052Z,75.04
2023-01-22T09:06:35.650Z,75.40
2023-01-22T09:09:02.551Z,75.94
2023-01-22T09:11:29.832Z,75.27
2023-01-22T09:13:57.962Z,76.09
2023-01-22T09:16:26.912Z,76.06
2023-01-22T09:18:53.951Z,75.26
2023-01-22T09:21:22.105Z,75.46
2023-01-22T09:23:49.190Z,74.51
2023-01-22T09:26:17.206Z,75.08
2023-01-22T09:28:44.408Z,74.71
2023-01-22T09:31:14.893Z,74.53
2023-01-22T09:33:42.722Z,74.35
2023-01-22T09:36:10.796Z,73.82
2023-01-22T09:38:38.031Z,73.19
2023-01-22T09:41:33.973Z,73.46
2023-01-22T09:44:17.545Z,71.76
2023-01-22T09:46:47.958Z,71.40
2023-01-22T09:49:25.187Z,71.00
2023-01-22T09:52:05.229Z,71.70
2023-01-22T09:54:33.208Z,71.38
2023-01-22T09:57:02.433Z,71.52
2023-01-22T09:59:52.443Z,70.67
2023-01-22T10:02:37.305Z,70.48
2023-01-22T10:05:28.083Z,70.44
2023-01-22T10:08:17.528Z,71.38
2023-01-22T10:10:44.243Z,70.87
2023-01-22T10:13:43.396Z,69.95
2023-01-22T10:16:11.842Z,70.59
2023-01-22T10:19:00.301Z,70.40
2023-01-22T10:21:29.999Z,70.07
2023-01-22T10:23:56.735Z,68.75
2023-01-22T10:26:35.392Z,68.25
2023-01-22T10:29:20.678Z,68.93
2023-01-22T10:32:10.465Z,67.20
2023-01-22T10:34:38.728Z,67.98
2023-01-22T10:37:18.343Z,66.08
2023-01-22T10:39:47.481Z,67.33
2023-01-22T10:42:22.241Z,67.25
2023-01-22T10:44:50.387Z,66.93
2023-01-22T10:47:25.305Z,67.06
2023-01-22T10:50:21.640Z,64.87
2023-01-22T10:52:52.609Z,65.79
2023-01-22T10:55:21.536Z,64.88
2023-01-22T10:57:52.408Z,66.53
2023-01-22T11:00:23.528Z,64.85
2023-01-22T11:02:50.335Z,64.04
2023-01-22T11:05:23.578Z,64.67
2023-01-22T11:08:03.799Z,66.67
2023-01-22T11:10:44.585Z,66.77
2023-01-22T11:13:26.252Z,65.30
2023-01-22T11:16:00.026Z,66.34
2023-01-22T11:18:49.267Z,65.61
2023-01-22T11:21:17.232Z,65.65
2023-01-22T11:23:46.743Z,65.07
2023-01-22T11:26:30.137Z,64.38
2023-01-22T11:29:32.559Z,64.08
2023-01-22T11:32:31.103Z,64.77
2023-01-22T11:35:27.232Z,64.41
2023-01-22T11:37:53.907Z,63.80
2023-01-22T11:40:29.943Z,63.40
2023-01-22T11:43:34.202Z,63.67
2023-01-22T11:46:10.308Z,65.40
2023-01-22T11:49:05.411Z,67.17
2023-01-22T11:51:34.856Z,66.56
2023-01-22T11:54:28.903Z,65.17
2023-01-22T11:57:05.455Z,66.41
2023-01-22T11:59:35.994Z,65.31
2023-01-22T12:02:08.927Z,64.87
2023-01-22T12:05:11.705Z,65.03
2023-01-22T12:07:57.185Z,64.52
2023-01-22T12:10:32.289Z,65.06
2023-01-22T12:13:17.647Z,64.01
2023-01-22T12:16:04.022Z,65.34
2023-01-22T12:18:42.043Z,66.26
2023-01-22T12:21:08.630Z,64.63
2023-01-22T12:23:41.960Z,62.38
2023-01-22T12:26:17.780Z,63.60
2023-01-22T12:29:04.346Z,63.56
2023-01-22T12:32:15.823Z,63.44
2023-01-22T12:34:50.321Z,64.76
2023-01-22T12:37:19.812Z,64.85
2023-01-22T12:39:52.815Z,65.33
2023-01-22T12:42:25.445Z,64.89
2023-01-22T12:44:57.696Z,64.09
2023-01-22T12:47:41.113Z,65.81
2023-01-22T12:50:23.821Z,62.73
2023-01-22T12:53:04.055Z,63.67
2023-01-22T12:55:37.653Z,63.16
2023-01-22T12:58:04.593Z,64.32
2023-01-22T13:00:35.870Z,64.50
2023-01-22T13:03:04.283Z,62.18
2023-01-22T13:05:30.892Z,61.11
2023-01-22T13:08:16.522Z,62.09
2023-01-22T13:10:57.584Z,62.39
2023-01-22T13:13:48.772Z,63.11
2023-01-22T13:16:15.393Z,64.35
2023-01-22T13:18:45.890Z,64.53
2023-01-22T13:21:14.461Z,65.65
2023-01-22T13:23:45.858Z,64.91
2023-01-22T13:26:17.219Z,64.47
2023-01-22T13:28:58.954Z,65.38
2023-01-22T13:31:26.132Z,65.94
2023-01-22T13:34:04.273Z,66.30
2023-01-22T13:36:35.436Z,65.09
2023-01-22T13:39:07.092Z,64.60
2023-01-22T13:41:40.226Z,63.39
2023-01-22T13:44:07.666Z,63.65
2023-01-22T13:46:38.108Z,65.23
2023-01-22T13:49:14.505Z,65.29
2023-01-22T13:51:42.940Z,64.85
2023-01-22T13:54:10.877Z,64.57
2023-01-22T13:56:40.730Z,64.06
2023-01-22T13:59:18.650Z,64.36
2023-01-22T14:01:46.310Z,63.61
2023-01-22T14:04:39.453Z,64.45
2023-01-22T14:07:06.529Z,64.06
2023-01-22T14:09:35.225Z,65.12
2023-01-22T14:12:14.988Z,64.61
2023-01-22T14:14:42.276Z,65.21
2023-01-22T14:17:36.993Z,65.31
2023-01-22T14:20:04.428Z,64.30
2023-01-22T14:22:32.563Z,63.44
2023-01-22T14:25:00.380Z,64.25
2023-01-22T14:27:28.858Z,64.38
2023-01-22T14:29:57.081Z,64.38
2023-01-22T14:32:26.869Z,63.93
2023-01-22T14:34:53.923Z,63.78
2023-01-22T14:37:22.949Z,62.41
2023-01-22T14:39:52.757Z,64.30
2023-01-22T14:42:19.467Z,63.99
2023-01-22T14:44:49.125Z,63.81
2023-01-22T14:47:17.097Z,64.21
2023-01-22T14:49:45.088Z,64.05
2023-01-22T14:52:12.629Z,63.70
2023-01-22T14:54:39.907Z,63.29
2023-01-22T14:57:07.883Z,63.24
2023-01-22T14:59:35.386Z,63.44
2023-01-22T15:02:02.566Z,64.08
2023-01-22T15:04:31.727Z,63.83
2023-01-22T15:06:58.933Z,63.88
2023-01-22T15:09:25.675Z,64.42
2023-01-22T15:11:53.092Z,63.65
2023-01-22T15:14:20.393Z,64.07
2023-01-22T15:16:47.685Z,64.42
2023-01-22T15:19:18.529Z,64.52
2023-01-22T15:21:46.833Z,64.48
2023-01-22T15:24:13.896Z,65.19
2023-01-22T15:26:40.605Z,65.86
2023-01-22T15:29:09.164Z,65.83
2023-01-22T15:31:36.358Z,65.82
2023-01-22T15:34:04.383Z,66.59
2023-01-22T15:36:32.117Z,67.06
2023-01-22T15:39:02.601Z,66.87
2023-01-22T15:41:39.071Z,68.02
2023-01-22T15:44:09.441Z,67.96
2023-01-22T15:46:37.542Z,67.55
2023-01-22T15:49:05.063Z,68.08
2023-01-22T15:51:33.169Z,67.85
2023-01-22T15:54:01.462Z,68.21
2023-01-22T15:56:31.977Z,68.04
2023-01-22T15:58:59.362Z,68.55
2023-01-22T16:01:28.868Z,68.20
2023-01-22T16:03:57.057Z,68.57
2023-01-22T16:06:28.163Z,68.63
2023-01-22T16:08:55.568Z,69.56
2023-01-22T16:11:22.444Z,69.23
2023-01-22T16:13:49.269Z,69.77
2023-01-22T16:16:20.832Z,69.57
2023-01-22T16:18:48.074Z,69.88
2023-01-22T16:21:16.966Z,69.85
2023-01-22T16:23:44.484Z,69.97
2023-01-22T16:26:22.009Z,70.02
2023-01-22T16:28:49.322Z,70.55
2023-01-22T16:31:19.677Z,70.82
2023-01-22T16:33:47.662Z,71.12
2023-01-22T16:36:19.308Z,71.26
2023-01-22T16:41:31.832Z,71.81
2023-01-22T16:44:08.951Z,72.03
2023-01-22T16:46:38.966Z,72.15
2023-01-22T16:49:16.042Z,72.40
2023-01-22T16:51:50.132Z,72.43
2023-01-22T16:54:22.755Z,72.28
2023-01-22T16:56:49.498Z,72.72
2023-01-22T16:59:16.707Z,72.90
2023-01-22T17:01:43.618Z,72.54
2023-01-22T17:04:10.740Z,72.61
2023-01-22T17:07:05.995Z,72.42
2023-01-22T17:09:35.057Z,72.46
2023-01-22T17:12:03.551Z,72.31
2023-01-22T17:14:31.247Z,72.65
2023-01-22T17:16:58.318Z,72.67
2023-01-22T17:19:25.237Z,72.59
2023-01-22T17:21:54.233Z,72.39
2023-01-22T17:24:21.025Z,72.12
2023-01-22T17:26:51.148Z,72.25
2023-01-22T17:29:18.172Z,72.45
2023-01-22T17:31:45.120Z,72.82
2023-01-22T17:34:12.297Z,72.57
2023-01-22T17:36:39.216Z,72.40
2023-01-22T17:39:06.309Z,72.63
2023-01-22T17:41:33.163Z,73.01
2023-01-22T17:43:59.963Z,72.28
2023-01-22T17:46:28.657Z,72.60
2023-01-22T17:48:55.523Z,72.31
2023-01-22T17:51:24.880Z,72.74
2023-01-22T17:53:51.678Z,73.40
2023-01-22T17:56:23.121Z,72.71
2023-01-22T17:58:59.050Z,72.63
2023-01-22T18:01:28.090Z,72.77
2023-01-22T18:03:58.905Z,73.39
2023-01-22T18:06:26.242Z,72.61
2023-01-22T18:08:53.111Z,72.87
2023-01-22T18:11:20.854Z,72.24
2023-01-22T18:13:48.934Z,71.69
2023-01-22T18:16:16.852Z,72.33
2023-01-22T18:18:45.060Z,72.38
2023-01-22T18:21:13.749Z,71.64
2023-01-22T18:23:40.526Z,72.48
2023-01-22T18:26:07.539Z,71.85
2023-01-22T18:28:34.672Z,71.67
2023-01-22T18:31:12.711Z,71.47
2023-01-22T18:33:41.395Z,71.19
2023-01-22T18:36:09.573Z,71.64
2023-01-22T18:38:38.099Z,71.07
2023-01-22T18:41:15.805Z,71.10
2023-01-22T18:43:42.763Z,70.78
2023-01-22T18:46:10.975Z,70.82
2023-01-22T18:48:38.495Z,70.74
2023-01-22T18:51:05.519Z,69.80
2023-01-22T18:53:34.621Z,70.07
2023-01-22T18:56:02.378Z,69.96
2023-01-22T18:58:29.357Z,69.77
2023-01-22T19:01:08.707Z,69.31
2023-01-22T19:03:35.737Z,69.69
2023-01-22T19:06:07.140Z,69.99
2023-01-22T19:08:55.956Z,69.34
2023-01-22T19:11:23.030Z,69.20
2023-01-22T19:13:55.065Z,69.46
2023-01-22T19:16:24.784Z,69.38
2023-01-22T19:19:05.652Z,69.17
2023-01-22T19:21:32.861Z,69.96
2023-01-22T19:24:02.671Z,69.85
2023-01-22T19:26:33.553Z,70.41
2023-01-22T19:29:02.439Z,69.77
2023-01-22T19:31:46.826Z,69.73
2023-01-22T19:34:15.185Z,69.32
2023-01-22T19:36:41.943Z,69.87
2023-01-22T19:39:10.996Z,69.80
2023-01-22T19:41:42.215Z,70.11
2023-01-22T19:44:09.562Z,69.83
2023-01-22T19:46:37.234Z,69.84
2023-01-22T19:49:06.015Z,70.28
2023-01-22T19:51:33.237Z,69.91
2023-01-22T19:54:00.823Z,70.16
2023-01-22T19:56:29.222Z,69.97
2023-01-22T19:59:07.846Z,70.09
2023-01-22T20:01:34.897Z,70.53
2023-01-22T20:04:04.952Z,70.12
2023-01-22T20:06:31.671Z,70.28
2023-01-22T20:08:58.494Z,70.38
2023-01-22T20:11:25.323Z,70.55
2023-01-22T20:13:52.912Z,70.45
2023-01-22T20:16:24.434Z,70.97
2023-01-22T20:18:51.649Z,70.62
2023-01-22T20:21:20.812Z,71.39
2023-01-22T20:23:48.957Z,70.74
2023-01-22T20:26:16.427Z,71.08
2023-01-22T20:28:43.223Z,70.26
2023-01-22T20:31:15.081Z,71.19
2023-01-22T20:33:43.203Z,70.51
2023-01-22T20:36:37.725Z,70.05
2023-01-22T20:39:04.795Z,70.68
2023-01-22T20:41:31.635Z,70.36
2023-01-22T20:43:59.806Z,70.19
2023-01-22T20:46:27.338Z,70.33
2023-01-22T20:48:56.477Z,70.32
2023-01-22T20:51:25.540Z,70.58
2023-01-22T20:53:54.131Z,70.40
2023-01-22T20:56:22.934Z,70.00
2023-01-22T20:58:59.559Z,70.63
2023-01-22T21:01:26.363Z,70.75
2023-01-22T21:03:55.097Z,70.63
2023-01-22T21:06:21.870Z,70.57
2023-01-22T21:08:50.512Z,70.81
2023-01-22T21:11:17.766Z,70.97
2023-01-22T21:13:52.992Z,70.39
2023-01-22T21:16:22.498Z,70.36
2023-01-22T21:18:49.322Z,70.90
2023-01-22T21:21:18.308Z,70.89
2023-01-22T21:23:49.765Z,70.57
2023-01-22T21:26:16.775Z,70.55
2023-01-22T21:28:43.992Z,70.63
2023-01-22T21:31:12.843Z,70.68
2023-01-22T21:33:39.792Z,70.61
2023-01-22T21:36:08.178Z,71.11
2023-01-22T21:38:35.168Z,71.23
2023-01-22T21:41:12.765Z,70.36
2023-01-22T21:43:40.315Z,71.07
2023-01-22T21:46:09.561Z,71.28
2023-01-22T21:48:36.659Z,71.30
2023-01-22T21:51:03.610Z,71.54
2023-01-22T21:53:30.883Z,72.11
2023-01-22T21:55:57.554Z,72.10
2023-01-22T21:58:24.300Z,72.11
2023-01-22T22:00:51.588Z,72.70
2023-01-22T22:03:18.694Z,72.46
2023-01-22T22:05:55.061Z,72.51
2023-01-22T22:08:22.172Z,72.67
2023-01-22T22:10:50.072Z,72.88
2023-01-22T22:13:18.322Z,73.31
2023-01-22T22:15:45.377Z,73.43
2023-01-22T22:18:12.123Z,73.40
2023-01-22T22:20:38.976Z,73.60
2023-01-22T22:23:05.718Z,73.94
2023-01-22T22:25:32.550Z,73.79
2023-01-22T22:28:00.328Z,73.76
2023-01-22T22:30:27.095Z,74.09
2023-01-22T22:32:53.875Z,73.48
2023-01-22T22:35:21.775Z,73.46
2023-01-22T22:37:48.525Z,73.87
2023-01-22T22:40:15.452Z,73.81
2023-01-22T22:42:42.860Z,73.91
2023-01-22T22:45:09.741Z,74.28
2023-01-22T22:47:36.666Z,74.54
2023-01-22T22:50:04.522Z,74.75
2023-01-22T22:52:34.996Z,74.94
2023-01-22T22:55:01.691Z,74.46
2023-01-22T22:57:31.265Z,74.40
2023-01-22T22:59:59.206Z,74.68
2023-01-22T23:02:27.796Z,74.64
2023-01-22T23:04:54.613Z,75.07
2023-01-22T23:07:21.718Z,75.08
2023-01-22T23:09:48.756Z,74.65
2023-01-22T23:12:15.724Z,74.26
2023-01-22T23:14:42.422Z,74.36
2023-01-22T23:17:09.089Z,74.39
2023-01-22T23:19:35.826Z,74.36
2023-01-22T23:22:02.674Z,74.46
2023-01-22T23:24:29.403Z,74.25
2023-01-22T23:26:56.540Z,74.22
2023-01-22T23:29:23.934Z,74.52
2023-01-22T23:31:53.667Z,74.83
2023-01-22T23:34:21.326Z,74.57
2023-01-22T23:36:49.027Z,74.70
2023-01-22T23:39:17.395Z,74.91
2023-01-22T23:41:44.157Z,74.77
2023-01-22T23:44:10.935Z,74.21
2023-01-22T23:46:37.640Z,74.80
2023-01-22T23:49:05.830Z,74.77
2023-01-22T23:51:35.463Z,75.07
2023-01-22T23:54:13.239Z,74.92
2023-01-22T23:56:40.438Z,74.30
2023-01-22T23:59:10.097Z,74.76
